Latest Weather Observations for Cabramurra

IDN60901

Issued at 8:01 pm EDT Wednesday 25 November 2020 (issued every 10 minutes, with the page automatically refreshed every 10 minutes)

About weather observations | Map of Canberra area stations | Latest observations for Canberra area | Other Formats
Station Details ID: 072161 Name: CABRAMURRA SMHEA AWS Lat: -35.94 Lon: 148.38 Height: 1482.4 m
Data from the previous 72 hours. | See also: Recent months at Cabramurra
Date/Time
EDT
Temp
°C
App
Temp
°C
Dew
Point
°C
Rel
Hum
%
Delta-T
°C
Wind Press
QNH
hPa
Press
MSL
hPa
Rain since
9am
mm
Dir  Spd
km/h
Gust
km/h
Spd
kts
Gust
kts
25/08:00pm 15.2 12.7 9.8 70 3.0 WSW 13 17 7 9 - - 0.0
25/07:30pm 16.0 13.5 11.0 72 2.9 W 15 22 8 12 - - 0.0
25/07:00pm 15.7 13.1 10.7 72 2.9 W 15 24 8 13 - - 0.0
25/06:30pm 16.6 13.8 11.5 72 3.0 WSW 17 24 9 13 - - 0.0
25/06:00pm 15.9 12.6 10.9 72 2.9 W 19 28 10 15 - - 0.0
25/05:30pm 16.3 13.5 11.2 72 3.0 W 17 24 9 13 - - 0.0
25/05:00pm 16.3 12.9 10.6 69 3.3 W 19 32 10 17 - - 0.0
25/04:30pm 17.7 13.4 10.6 63 4.1 W 24 39 13 21 - - 0.0
25/04:00pm 17.6 14.2 11.2 66 3.7 W 20 33 11 18 - - 0.0
25/03:30pm 17.4 13.0 10.3 63 4.1 WSW 24 39 13 21 - - 0.0
25/03:00pm 17.3 13.3 9.0 58 4.6 WNW 20 32 11 17 - - 0.0
25/02:30pm 17.5 13.9 10.6 64 4.0 WSW 20 37 11 20 - - 0.0
25/02:00pm 16.7 13.1 10.5 67 3.6 W 20 35 11 19 - - 0.0
25/01:30pm 15.9 12.4 10.9 72 2.9 W 20 32 11 17 - - 0.0
25/01:00pm 14.9 11.1 9.7 71 2.9 W 20 32 11 17 - - 0.0
25/12:30pm 15.7 12.3 10.5 71 3.0 WNW 19 28 10 15 - - 0.0
25/12:00pm 15.1 12.2 9.5 69 3.1 W 15 22 8 12 - - 0.0
25/11:30am 15.3 12.4 11.1 76 2.4 NW 17 26 9 14 - - 0.0
25/11:00am 14.6 11.5 9.0 69 3.1 WNW 15 24 8 13 - - 0.0
25/10:30am 14.2 11.8 10.2 77 2.2 NW 13 20 7 11 - - 0.0
25/10:00am 13.2 10.4 8.5 73 2.5 NW 13 20 7 11 - - 0.0
25/09:30am 12.9 10.5 8.6 75 2.3 NNW 11 15 6 8 - - 0.0
25/09:00am 12.3 10.1 8.0 75 2.3 NNW 9 13 5 7 - - 0.0
25/08:30am 11.4 9.5 7.5 77 2.0 NW 7 11 4 6 - - 0.0
25/08:00am 10.9 8.4 8.3 84 1.4 NNW 11 13 6 7 - - 0.0
25/07:30am 10.6 8.9 8.2 85 1.3 N 7 11 4 6 - - 0.0
25/07:00am 9.9 8.8 8.3 90 0.8 NNW 4 7 2 4 - - 0.0
25/06:30am 9.8 8.3 8.4 91 0.7 N 6 7 3 4 - - 0.0
25/06:00am 8.9 7.5 8.8 99 0.1 NNE 6 7 3 4 - - 0.0
25/05:30am 9.2 7.9 9.1 99 0.1 N 6 7 3 4 - - 0.0
25/05:00am 8.4 6.7 8.3 99 0.1 NE 7 7 4 4 - - 0.0
25/04:30am 8.7 6.2 8.4 98 0.2 ENE 11 13 6 7 - - 0.0
25/04:00am 9.0 6.0 7.9 93 0.6 ENE 13 19 7 10 - - 0.0
25/03:30am 9.2 6.3 8.1 93 0.6 ENE 13 19 7 10 - - 0.0
25/03:00am 9.0 4.8 8.1 94 0.5 ENE 20 26 11 14 - - 0.0
25/02:30am 9.0 5.4 8.4 96 0.3 ENE 17 24 9 13 - - 0.0
25/02:00am 8.7 4.6 8.6 99 0.1 E 20 26 11 14 - - 0.0
25/01:30am 9.0 5.0 8.9 99 0.1 E 20 28 11 15 - - 0.0
25/01:00am 9.3 4.6 9.2 99 0.1 E 24 33 13 18 - - 0.0
25/12:30am 9.5 4.7 9.0 97 0.3 E 24 35 13 19 - - 0.0
25/12:00am 9.7 3.8 8.9 95 0.4 E 30 35 16 19 - - 0.0
 
Date/Time
EDT
Temp
°C
App
Temp
°C
Dew
Point
°C
Rel
Hum
%
Delta-T
°C
Wind Press
QNH
hPa
Press
MSL
hPa
Rain since
9am
mm
Dir  Spd
km/h
Gust
km/h
Spd
kts
Gust
kts
24/11:30pm 10.1 4.2 9.0 93 0.6 ESE 30 39 16 21 - - 0.0
24/11:00pm 10.6 5.8 9.0 90 0.9 ESE 24 32 13 17 - - 0.0
24/10:30pm 10.9 5.7 8.7 86 1.2 ESE 26 35 14 19 - - 0.0
24/10:00pm 11.3 5.7 8.7 84 1.4 ESE 28 37 15 20 - - 0.0
24/09:30pm 11.9 6.6 6.8 71 2.6 ESE 24 33 13 18 - - 0.0
24/09:00pm 12.7 7.2 6.1 64 3.4 ESE 24 30 13 16 - - 0.0
24/08:30pm 13.0 11.0 6.4 64 3.4 WSW 6 9 3 5 - - 0.0
24/08:00pm 13.4 10.8 6.3 62 3.7 W 9 13 5 7 - - 0.0
24/07:30pm 13.7 11.1 6.1 60 3.9 WSW 9 15 5 8 - - 0.0
24/07:00pm 14.1 11.1 6.2 59 4.1 W 11 17 6 9 - - 0.0
24/06:30pm 14.5 11.1 6.1 57 4.4 WNW 13 22 7 12 - - 0.0
24/06:00pm 14.3 10.0 5.1 54 4.7 W 17 24 9 13 - - 0.0
24/05:30pm 15.9 11.7 5.5 50 5.4 WSW 17 24 9 13 - - 0.0
24/05:00pm 15.6 10.8 4.9 49 5.5 W 19 26 10 14 - - 0.0
24/04:30pm 15.6 11.1 4.0 46 5.8 W 17 26 9 14 - - 0.0
24/04:00pm 15.2 10.2 3.7 46 5.7 W 19 26 10 14 - - 0.0
24/03:30pm 15.3 10.6 3.1 44 6.0 WNW 17 26 9 14 - - 0.0
24/03:00pm 15.1 10.7 4.5 49 5.4 W 17 30 9 16 - - 0.0
24/02:30pm 14.6 10.4 7.4 62 3.8 W 19 28 10 15 - - 0.0
24/02:00pm 14.2 9.6 6.3 59 4.1 W 20 30 11 16 - - 0.0
24/01:30pm 13.8 9.3 5.9 59 4.1 WNW 19 28 10 15 - - 0.0
24/01:00pm 13.9 10.3 8.3 69 3.0 W 17 26 9 14 - - 0.0
24/12:30pm 12.7 8.7 9.0 78 2.0 W 20 35 11 19 - - 0.0
24/12:00pm 12.7 9.1 8.4 75 2.3 WNW 17 24 9 13 - - 0.0
24/11:30am 12.7 7.7 6.5 66 3.2 W 22 30 12 16 - - 0.0
24/11:00am 12.3 9.0 8.0 75 2.3 W 15 26 8 14 - - 0.0
24/10:30am 12.3 10.0 9.0 80 1.8 WNW 11 17 6 9 - - 0.0
24/10:00am 11.3 8.7 7.6 78 1.9 WNW 11 17 6 9 - - 0.0
24/09:30am 10.8 8.3 6.7 76 2.1 WNW 9 13 5 7 - - 0.0
24/09:00am 10.2 8.4 7.8 85 1.3 NW 7 9 4 5 - - 21.2
24/08:30am 10.2 8.2 7.3 82 1.5 S 7 9 4 5 - - 21.2
24/08:00am 9.8 8.6 6.3 79 1.8 SSW 2 9 1 5 - - 21.2
24/07:30am 10.4 8.5 6.9 79 1.8 SSE 6 7 3 4 - - 21.2
24/07:00am 10.0 8.1 6.5 79 1.8 SE 6 7 3 4 - - 21.2
24/06:30am 8.8 6.6 6.1 83 1.4 SE 7 11 4 6 - - 21.2
24/06:00am 8.3 5.3 6.1 86 1.1 SE 11 13 6 7 - - 21.2
24/05:30am 7.7 4.6 5.5 86 1.1 SE 11 15 6 8 - - 21.2
24/05:00am 8.1 4.7 5.7 85 1.2 ESE 13 15 7 8 - - 21.2
24/04:30am 8.3 5.1 5.2 81 1.5 SE 11 17 6 9 - - 21.2
24/04:00am 7.8 4.7 5.6 86 1.1 ESE 11 15 6 8 - - 21.2
24/03:30am 8.2 5.0 5.3 82 1.4 E 11 13 6 7 - - 21.2
24/03:00am 8.1 5.1 6.1 87 1.0 E 11 15 6 8 - - 21.2
24/02:30am 7.8 3.8 6.7 93 0.6 E 17 20 9 11 - - 21.2
24/02:00am 8.5 6.3 5.4 81 1.5 SE 6 11 3 6 - - 21.2
24/01:30am 8.7 5.7 6.0 83 1.3 ESE 11 17 6 9 - - 21.2
24/01:00am 8.7 4.9 5.8 82 1.4 E 15 20 8 11 - - 21.2
24/12:30am 8.8 6.4 5.2 78 1.8 ESE 7 13 4 7 - - 21.2
24/12:00am 9.1 6.3 5.3 77 1.9 S 9 13 5 7 - - 21.2
 
Date/Time
EDT
Temp
°C
App
Temp
°C
Dew
Point
°C
Rel
Hum
%
Delta-T
°C
Wind Press
QNH
hPa
Press
MSL
hPa
Rain since
9am
mm
Dir  Spd
km/h
Gust
km/h
Spd
kts
Gust
kts
23/11:30pm 9.9 6.9 6.1 77 1.9 SE 11 19 6 10 - - 21.2
23/11:00pm 9.8 6.5 6.5 80 1.7 S 13 17 7 9 - - 21.2
23/10:30pm 10.1 6.8 6.3 77 1.9 S 13 19 7 10 - - 21.2
23/10:00pm 10.6 6.6 6.6 76 2.0 S 17 20 9 11 - - 21.2
23/09:30pm 10.9 7.3 6.6 75 2.2 SSE 15 20 8 11 - - 21.2
23/09:00pm 10.5 6.9 6.8 78 1.9 S 15 20 8 11 - - 21.2
23/08:30pm 11.1 7.9 6.8 75 2.2 SSW 13 20 7 11 - - 21.2
23/08:00pm 11.5 7.9 6.8 73 2.4 SSW 15 24 8 13 - - 21.2
23/07:30pm 11.9 7.4 6.8 71 2.6 SSW 20 30 11 16 - - 21.2
23/07:00pm 12.4 8.2 7.3 71 2.7 SW 19 24 10 13 - - 21.2
23/06:30pm 13.5 9.8 7.9 69 3.0 SSW 17 22 9 12 - - 21.2
23/06:00pm 13.7 8.8 8.3 70 2.9 SW 24 35 13 19 - - 21.2
23/05:30pm 13.2 7.9 8.5 73 2.5 SW 26 41 14 22 - - 21.2
23/05:09pm 13.1 7.2 9.2 77 2.1 SW 30 48 16 26 - - 21.2
23/05:00pm 13.1 7.4 9.7 80 1.9 SW 30 44 16 24 - - 21.2
23/04:30pm 13.2 8.7 10.0 81 1.8 WSW 24 44 13 24 - - 21.2
23/04:16pm 13.0 7.7 9.8 81 1.8 WSW 28 50 15 27 - - 21.2
23/04:00pm 13.3 8.3 10.8 85 1.4 WSW 28 44 15 24 - - 21.2
23/03:30pm 12.9 7.9 11.0 88 1.1 WSW 28 43 15 23 - - 21.2
23/03:00pm 13.2 9.2 13.0 99 0.1 WSW 26 41 14 22 - - 21.2
23/02:30pm 12.1 7.6 10.2 88 1.1 WSW 24 39 13 21 - - 21.2
23/02:00pm 12.3 7.4 10.0 86 1.3 W 26 39 14 21 - - 21.2
23/01:30pm 12.4 8.2 11.0 91 0.8 WSW 24 30 13 16 - - 21.2
23/01:06pm 9.7 4.4 9.7 100 0.0 S 28 41 15 22 - - 21.2
23/01:00pm 9.2 2.0 9.2 100 0.0 SSW 37 57 20 31 - - 21.0
23/12:30pm 8.4 -1.5 8.4 100 0.0 SSW 50 69 27 37 - - 19.0
23/12:00pm 8.1 -3.2 8.1 100 0.0 SW 57 91 31 49 - - 17.0
23/11:52am 8.0 -3.1 8.0 100 0.0 WSW 56 95 30 51 - - 15.8
23/11:46am 11.9 6.2 11.9 100 0.0 W 33 78 18 42 - - 12.4
23/11:45am 12.0 6.9 12.0 100 0.0 W 30 70 16 38 - - 11.4
23/11:43am 12.1 7.4 12.1 100 0.0 W 28 48 15 26 - - 10.4
23/11:30am 11.8 7.4 11.8 100 0.0 WNW 26 52 14 28 - - 6.6
23/11:05am 11.9 6.4 11.9 100 0.0 WNW 32 56 17 30 - - 0.8
23/11:00am 12.1 7.8 12.1 100 0.0 W 26 44 14 24 - - 0.8
23/10:51am 11.9 7.2 11.9 100 0.0 WNW 28 46 15 25 - - 0.8
23/10:30am 11.8 7.0 11.8 100 0.0 NW 28 43 15 23 - - 0.6
23/10:00am 11.9 7.2 11.9 100 0.0 WNW 28 46 15 25 - - 0.6
23/09:30am 11.7 6.5 11.7 100 0.0 WNW 30 50 16 27 - - 0.0
23/09:02am 11.6 6.8 11.6 100 0.0 WNW 28 48 15 26 - - 0.0
23/09:00am 11.7 7.3 11.7 100 0.0 WNW 26 39 14 21 - - 10.2
23/08:30am 11.8 7.0 11.8 100 0.0 NW 28 44 15 24 - - 10.2
23/08:00am 11.7 8.6 11.7 100 0.0 WNW 19 28 10 15 - - 10.2
23/07:30am 11.8 9.9 11.8 100 0.0 NW 13 17 7 9 - - 10.2
23/07:00am 11.5 8.4 11.5 100 0.0 WNW 19 28 10 15 - - 10.0
23/06:30am 11.5 7.4 11.5 100 0.0 W 24 33 13 18 - - 8.4
23/06:00am 11.6 8.3 11.6 100 0.0 W 20 33 11 18 - - 7.8
23/05:30am 11.8 9.9 11.8 100 0.0 WNW 13 20 7 11 - - 6.8
23/05:00am 11.8 9.9 11.8 100 0.0 NW 13 19 7 10 - - 6.6
23/04:30am 12.0 10.5 12.0 100 0.0 NW 11 17 6 9 - - 6.2
23/04:00am 12.0 10.2 12.0 100 0.0 NW 13 17 7 9 - - 6.2
23/03:30am 11.9 9.6 11.9 100 0.0 NW 15 20 8 11 - - 6.2
23/03:00am 12.0 9.4 12.0 100 0.0 NNW 17 22 9 12 - - 6.2
23/02:30am 11.9 9.6 11.9 100 0.0 NNW 15 20 8 11 - - 6.2
23/02:00am 12.2 9.7 12.2 100 0.0 NNW 17 20 9 11 - - 5.8
23/01:30am 12.3 9.8 12.3 100 0.0 NW 17 20 9 11 - - 5.4
23/01:00am 12.5 10.1 12.5 100 0.0 WNW 17 28 9 15 - - 4.8
23/12:30am 13.0 9.3 12.8 99 0.1 W 24 33 13 18 - - 4.4
23/12:00am 13.8 11.0 12.5 92 0.8 WNW 19 24 10 13 - - 4.0
 
Date/Time
EDT
Temp
°C
App
Temp
°C
Dew
Point
°C
Rel
Hum
%
Delta-T
°C
Wind Press
QNH
hPa
Press
MSL
hPa
Rain since
9am
mm
Dir  Spd
km/h
Gust
km/h
Spd
kts
Gust
kts
22/11:30pm 14.7 11.9 11.5 81 1.8 WNW 17 20 9 11 - - 4.0
22/11:00pm 14.8 13.1 11.2 79 2.1 NNW 11 13 6 7 - - 4.0
22/10:30pm 14.9 13.2 11.1 78 2.2 N 11 17 6 9 - - 4.0
22/10:00pm 14.5 12.1 11.3 81 1.8 N 15 19 8 10 - - 4.0
22/09:30pm 15.0 12.2 11.2 78 2.2 N 17 24 9 13 - - 4.0
22/09:00pm 13.4 10.8 13.2 99 0.1 N 19 24 10 13 - - 4.0
22/08:30pm 13.9 13.3 12.3 90 0.9 NNE 7 11 4 6 - - 4.0

Latest Capital City Observations: Canberra | Sydney | Melbourne | Brisbane | Adelaide | Perth | Hobart | Darwin

Other formats

Comma delimited format used in spreadsheet applications
http://www.bom.gov.au/fwo/IDN60903/IDN60903.95916.axf

JavaScript Object Notation format (JSON) in row-major order
http://www.bom.gov.au/fwo/IDN60903/IDN60903.95916.json

Data quality

Most of these data are generated automatically and are frequently updated. Quality checks on data are not normally performed. It is possible for incorrect values to appear. Refer to information at About Latest Weather Observations and please check the disclaimer before using these data.